Map

Track Data

SID SEASON NUMBER BASIN SUBBASIN NAME ISO_TIME NATURE LAT LON WMO_WIND WMO_PRES WMO_AGENCY TRACK_TYPE DIST2LAND LANDFALL IFLAG USA_AGENCY USA_ATCF_ID USA_LAT USA_LON USA_RECORD USA_STATUS USA_WIND USA_PRES USA_SSHS USA_R34_NE USA_R34_SE USA_R34_SW USA_R34_NW USA_R50_NE USA_R50_SE USA_R50_SW USA_R50_NW USA_R64_NE USA_R64_SE USA_R64_SW USA_R64_NW USA_POCI USA_ROCI USA_RMW USA_EYE TOKYO_LAT TOKYO_LON TOKYO_GRADE TOKYO_WIND TOKYO_PRES TOKYO_R50_DIR TOKYO_R50_LONG TOKYO_R50_SHORT TOKYO_R30_DIR TOKYO_R30_LONG TOKYO_R30_SHORT TOKYO_LAND CMA_LAT CMA_LON CMA_CAT CMA_WIND CMA_PRES HKO_LAT HKO_LON HKO_CAT HKO_WIND HKO_PRES NEWDELHI_LAT NEWDELHI_LON NEWDELHI_GRADE NEWDELHI_WIND NEWDELHI_PRES NEWDELHI_CI NEWDELHI_DP NEWDELHI_POCI REUNION_LAT REUNION_LON REUNION_TYPE REUNION_WIND REUNION_PRES REUNION_TNUM REUNION_CI REUNION_RMW REUNION_R34_NE REUNION_R34_SE REUNION_R34_SW REUNION_R34_NW REUNION_R50_NE REUNION_R50_SE REUNION_R50_SW REUNION_R50_NW REUNION_R64_NE REUNION_R64_SE REUNION_R64_SW REUNION_R64_NW BOM_LAT BOM_LON BOM_TYPE BOM_WIND BOM_PRES BOM_TNUM BOM_CI BOM_RMW BOM_R34_NE BOM_R34_SE BOM_R34_SW BOM_R34_NW BOM_R50_NE BOM_R50_SE BOM_R50_SW BOM_R50_NW BOM_R64_NE BOM_R64_SE BOM_R64_SW BOM_R64_NW BOM_ROCI BOM_POCI BOM_EYE BOM_POS_METHOD BOM_PRES_METHOD NADI_LAT NADI_LON NADI_CAT NADI_WIND NADI_PRES WELLINGTON_LAT WELLINGTON_LON WELLINGTON_WIND WELLINGTON_PRES DS824_LAT DS824_LON DS824_STAGE DS824_WIND DS824_PRES TD9636_LAT TD9636_LON TD9636_STAGE TD9636_WIND TD9636_PRES TD9635_LAT TD9635_LON TD9635_WIND TD9635_PRES TD9635_ROCI NEUMANN_LAT NEUMANN_LON NEUMANN_CLASS NEUMANN_WIND NEUMANN_PRES MLC_LAT MLC_LON MLC_CLASS MLC_WIND MLC_PRES USA_GUST BOM_GUST BOM_GUST_PER REUNION_GUST REUNION_GUST_PER USA_SEAHGT USA_SEARAD_NE USA_SEARAD_SE USA_SEARAD_SW USA_SEARAD_NW STORM_SPEED STORM_DIR
1976281S06067 1977 124 SI MM AGATHE 1976-10-07 03:00:00 TS -5.59250 67.2425 spur-merge 1901 1898 ______________ -1 5 291
1976281S06067 1977 124 SI MM AGATHE 1976-10-07 06:00:00 TS -5.50000 67.0000 reunion spur-merge 1905 1905 _____O______O_ -1 -5.50000 67.0000 3 9.90000 -5.50000 67.0000 TC 35 5 284
1976281S06067 1977 124 SI MM AGATHE 1976-10-07 09:00:00 TS -5.48499 66.7925 spur-merge 1908 1896 _____P______P_ -1 -5.50001 66.8000 3 -5.50001 66.8000 TC 35 4 270
1976281S06067 1977 124 SI MM AGATHE 1976-10-07 12:00:00 TS -5.50000 66.6000 reunion spur-merge 1896 1886 _____O______O_ -1 -5.50000 66.6000 99 9.90000 -5.50000 66.6000 TC 35 4 268
1976281S06067 1977 124 SI MM AGATHE 1976-10-07 15:00:00 TS -5.49999 66.4000 spur-merge 1886 1875 _____P______P_ -1 -5.49999 66.4000 99 -5.49999 66.4000 TC 37 4 270
1976281S06067 1977 124 SI MM AGATHE 1976-10-07 18:00:00 TS -5.50000 66.2000 reunion spur-merge 1875 1864 _____O______O_ -1 -5.50000 66.2000 99 9.90000 -5.50000 66.2000 TC 40 4 269
1976281S06067 1977 124 SI MM AGATHE 1976-10-07 21:00:00 TS -5.50749 66.0000 spur-merge 1864 1854 _____P______P_ -1 -5.50749 66.0000 99 -5.50749 66.0000 TC 40 4 270
1976281S06067 1977 124 SI MM AGATHE 1976-10-08 00:00:00 TS -5.50000 65.8000 reunion spur-merge 1854 1849 _____O______O_ -1 -5.50000 65.8000 99 9.90000 -5.50000 65.8000 TC 40 4 283
1976281S06067 1977 124 SI MM AGATHE 1976-10-08 03:00:00 TS -5.42741 65.6524 spur-merge 1859 1844 _____P______P_ -1 -5.42741 65.6524 99 -5.42741 65.6524 TC 40 4 284
1976281S06067 1977 124 SI MM AGATHE 1976-10-08 06:00:00 TS -5.40000 65.4000 reunion spur-merge 1844 1810 _____O______O_ -1 -5.40000 65.4000 3 9.90000 -5.40000 65.4000 TC 40 8 263
1976281S06067 1977 124 SI MM AGATHE 1976-10-08 09:00:00 TS -5.52012 64.8801 spur-merge 1810 1763 _____P______P_ -1 -5.52012 64.8801 3 -5.52012 64.8801 TC 40 11 255
1976281S06067 1977 124 SI MM AGATHE 1976-10-08 12:00:00 TS -5.70000 64.3000 reunion spur-merge 1763 1734 _____O______O_ -1 -5.70000 64.3000 99 9.90000 -5.70000 64.3000 TC 40 10 252
1976281S06067 1977 124 SI MM AGATHE 1976-10-08 15:00:00 TS -5.83492 63.8774 spur-merge 1734 1685 _____P______P_ -1 -5.83492 63.8774 99 -5.83492 63.8774 TC 40 9 249
1976281S06067 1977 124 SI MM AGATHE 1976-10-08 18:00:00 TS -6.00000 63.5000 reunion spur-merge 1685 1635 _____O______O_ -1 -6.00000 63.5000 99 9.90000 -6.00000 63.5000 TC 40 9 243
1976281S06067 1977 124 SI MM AGATHE 1976-10-08 21:00:00 TS -6.23499 63.0925 spur-merge 1635 1580 _____P______P_ -1 -6.23499 63.0925 99 -6.23499 63.0925 TC 40 9 238
1976281S06067 1977 124 SI MM AGATHE 1976-10-09 00:00:00 TS -6.50000 62.7000 reunion spur-merge 1580 1540 _____O______O_ -1 -6.50000 62.7000 99 9.90000 -6.50000 62.7000 TC 40 9 236
1976281S06067 1977 124 SI MM AGATHE 1976-10-09 03:00:00 TS -6.73497 62.3349 spur-merge 1531 1486 _____P______P_ -1 -6.73497 62.3349 99 -6.73497 62.3349 TC 40 9 234
1976281S06067 1977 124 SI MM AGATHE 1976-10-09 06:00:00 TS -7.00000 62.0000 reunion spur-merge 1486 1441 _____O______O_ -1 -7.00000 62.0000 3 9.90000 -7.00000 62.0000 TC 40 9 226
1976281S06067 1977 124 SI MM AGATHE 1976-10-09 09:00:00 TS -7.36499 61.6776 spur-merge 1435 1391 _____P______P_ -1 -7.33004 61.6926 3 -7.33004 61.6926 TC 40 9 220
1976281S06067 1977 124 SI MM AGATHE 1976-10-09 12:00:00 TS -7.70000 61.4000 reunion spur-merge 1391 _____O______O_ -1 -7.70000 61.4000 99 9.90000 -7.70000 61.4000 TC 40 9 219

About IBTrACS Database

This database is a web-friendly format of International Best Track Archive for Climate Stewardship (IBTrACS), a global best track data archive curated by NOAA dating back to 1842.

Updated: 2021-10-19